Time;durP1;ratioP1;P1;durP2;ratioP2;P2;SDS_P1;SDS_P2;PMS_P1;PMS_P2;Temp;Humidity;BMP_temperature;BMP_pressure;BME280_temperature;BME280_humidity;BME280_pressure;Samples;Min_cycle;Max_cycle;Signal;HPM_P1;HPM_P2
2023/06/06 00:02:30;;;;;;;0.45;0.45;;;;;;;15.71;100.00;102082.97;10427660;28;20049;-80
2023/06/06 00:07:32;;;;;;;0.35;0.25;;;;;;;15.43;100.00;102095.31;10445279;28;20099;-80
2023/06/06 00:12:34;;;;;;;0.43;0.13;;;;;;;15.46;100.00;102092.78;10428321;28;20420;-81
2023/06/06 00:17:38;;;;;;;1.40;0.75;;;;;;;15.62;100.00;102085.34;10439201;28;20056;-80
2023/06/06 00:22:40;;;;;;;0.82;0.60;;;;;;;15.57;100.00;102084.38;10403502;28;20135;-80
2023/06/06 00:27:42;;;;;;;0.22;0.22;;;;;;;15.62;100.00;102067.16;10445035;28;20059;-80
2023/06/06 00:32:44;;;;;;;1.20;0.70;;;;;;;15.38;100.00;102076.13;10455180;28;20037;-80
2023/06/06 00:37:45;;;;;;;0.25;0.25;;;;;;;15.06;100.00;102083.97;10462269;28;20059;-81
2023/06/06 00:42:48;;;;;;;0.60;0.47;;;;;;;15.19;100.00;102067.88;10435069;28;20056;-80
2023/06/06 00:47:50;;;;;;;0.35;0.17;;;;;;;15.05;100.00;102080.50;10443011;28;20084;-80
2023/06/06 00:52:53;;;;;;;0.80;0.47;;;;;;;14.91;100.00;102077.56;10466773;28;20408;-80
2023/06/06 00:57:56;;;;;;;0.20;0.20;;;;;;;15.02;100.00;102074.34;10453135;28;20053;-81
2023/06/06 01:03:00;;;;;;;0.98;0.75;;;;;;;14.80;100.00;102084.16;10434474;28;20052;-81
2023/06/06 01:08:02;;;;;;;0.52;0.45;;;;;;;14.86;100.00;102078.25;10450153;28;20041;-81
2023/06/06 01:13:24;;;;;;;0.25;0.20;;;;;;;15.02;100.00;102077.84;10440715;28;20041;-80
2023/06/06 01:18:25;;;;;;;1.00;0.75;;;;;;;14.65;100.00;102078.50;10445710;28;20056;-80
2023/06/06 01:23:30;;;;;;;0.80;0.40;;;;;;;14.69;100.00;102085.59;10434114;28;20045;-81
2023/06/06 01:28:32;;;;;;;0.10;0.10;;;;;;;15.08;100.00;102077.09;10459447;28;20049;-80
2023/06/06 01:33:52;;;;;;;0.30;0.30;;;;;;;14.58;100.00;102086.13;10453313;28;20099;-80
2023/06/06 01:38:58;;;;;;;0.90;0.40;;;;;;;14.94;100.00;102081.03;10450733;28;20543;-81
2023/06/06 01:44:01;;;;;;;0.10;0.10;;;;;;;14.53;100.00;102077.34;10432988;28;20045;-80
2023/06/06 01:49:03;;;;;;;0.77;0.55;;;;;;;14.57;100.00;102081.75;10448548;28;20044;-80
2023/06/06 01:54:05;;;;;;;1.27;0.50;;;;;;;14.39;100.00;102081.25;10438104;28;20067;-79
2023/06/06 01:59:06;;;;;;;1.20;0.38;;;;;;;14.60;100.00;102080.97;10458429;28;20051;-80
2023/06/06 02:04:08;;;;;;;1.08;0.60;;;;;;;14.61;100.00;102077.53;10448295;28;20071;-80
2023/06/06 02:09:11;;;;;;;0.30;0.30;;;;;;;15.13;100.00;102078.13;10429060;28;20558;-80
2023/06/06 02:14:15;;;;;;;3.20;1.42;;;;;;;14.58;100.00;102088.72;10451755;28;20041;-80
2023/06/06 02:19:17;;;;;;;6.32;1.45;;;;;;;14.63;100.00;102090.56;10432241;28;20053;-80
2023/06/06 02:24:20;;;;;;;0.60;0.50;;;;;;;14.63;100.00;102093.16;10432444;28;20168;-80
2023/06/06 02:29:24;;;;;;;0.20;0.10;;;;;;;14.68;100.00;102083.81;10442319;28;20045;-80
2023/06/06 02:34:26;;;;;;;0.52;0.45;;;;;;;14.44;100.00;102084.84;10430585;28;20164;-79
2023/06/06 02:39:28;;;;;;;3.10;1.10;;;;;;;14.59;100.00;102085.28;10432963;28;20045;-80
2023/06/06 02:44:30;;;;;;;0.80;0.57;;;;;;;14.28;100.00;102074.03;10430503;28;20148;-80
2023/06/06 02:49:32;;;;;;;1.50;0.63;;;;;;;14.47;100.00;102084.06;10446626;28;20053;-80
2023/06/06 02:54:34;;;;;;;0.47;0.45;;;;;;;14.20;100.00;102083.28;10445485;28;20048;-80
2023/06/06 02:59:36;;;;;;;2.20;0.55;;;;;;;14.36;100.00;102081.16;10445794;28;20037;-80
2023/06/06 03:04:38;;;;;;;0.35;0.35;;;;;;;14.02;100.00;102082.75;10434846;28;20052;-80
2023/06/06 03:09:39;;;;;;;0.65;0.55;;;;;;;14.04;100.00;102083.66;10447280;28;20186;-80
2023/06/06 03:14:46;;;;;;;0.50;0.40;;;;;;;13.98;100.00;102084.38;10428474;28;20047;-80
2023/06/06 03:20:01;;;;;;;1.10;0.43;;;;;;;13.92;100.00;102082.47;10445629;28;20056;-80
2023/06/06 03:25:07;;;;;;;0.10;0.10;;;;;;;14.12;100.00;102092.53;10423219;28;20138;-80
2023/06/06 03:30:21;;;;;;;2.35;0.32;;;;;;;13.99;100.00;102093.00;10432416;28;20037;-81
2023/06/06 03:35:23;;;;;;;0.20;0.15;;;;;;;13.89;100.00;102095.31;10463028;28;20041;-81
2023/06/06 03:40:26;;;;;;;0.20;0.13;;;;;;;14.06;100.00;102092.38;10445285;28;20127;-80
2023/06/06 03:45:28;;;;;;;3.45;0.43;;;;;;;14.01;100.00;102084.44;10446027;28;20048;-80
2023/06/06 03:50:31;;;;;;;0.63;0.17;;;;;;;14.12;100.00;102087.34;10429773;28;20103;-80
2023/06/06 03:55:33;;;;;;;0.57;0.20;;;;;;;14.24;100.00;102095.53;10445379;28;20049;-80
2023/06/06 04:00:35;;;;;;;0.35;0.20;;;;;;;14.09;100.00;102097.66;10431342;28;20053;-80
2023/06/06 04:05:37;;;;;;;0.90;0.50;;;;;;;14.23;100.00;102091.16;10431791;28;20099;-80
2023/06/06 04:10:39;;;;;;;0.32;0.30;;;;;;;13.86;100.00;102095.22;10452728;28;20578;-81
2023/06/06 04:15:41;;;;;;;0.30;0.30;;;;;;;13.90;100.00;102093.63;10443529;28;20140;-82
2023/06/06 04:20:44;;;;;;;0.60;0.35;;;;;;;13.87;100.00;102091.81;10451443;28;20037;-81
2023/06/06 04:25:46;;;;;;;0.52;0.43;;;;;;;14.21;100.00;102087.63;10466789;28;20049;-82
2023/06/06 04:30:52;;;;;;;1.08;0.63;;;;;;;14.60;100.00;102097.44;10434907;28;20114;-80
2023/06/06 04:35:57;;;;;;;0.22;0.22;;;;;;;14.12;100.00;102095.13;10435999;28;20052;-82
2023/06/06 04:41:01;;;;;;;0.35;0.32;;;;;;;14.46;100.00;102092.66;10450878;28;20041;-81
2023/06/06 04:46:23;;;;;;;0.88;0.65;;;;;;;14.15;100.00;102092.66;10464264;28;20064;-81
2023/06/06 04:51:30;;;;;;;1.25;0.75;;;;;;;14.69;100.00;102095.97;10467721;28;20471;-81
2023/06/06 04:56:32;;;;;;;2.17;0.20;;;;;;;14.57;100.00;102097.31;10449181;28;20059;-82
2023/06/06 05:01:37;;;;;;;0.30;0.25;;;;;;;14.97;100.00;102101.91;10449447;28;20049;-81
2023/06/06 05:06:40;;;;;;;0.65;0.43;;;;;;;14.90;100.00;102096.56;10433864;28;20048;-81
2023/06/06 05:11:49;;;;;;;2.47;0.82;;;;;;;15.28;100.00;102087.13;10417035;28;20420;-80
2023/06/06 05:16:52;;;;;;;1.33;0.60;;;;;;;14.97;100.00;102091.53;10444561;28;20056;-81
2023/06/06 05:21:54;;;;;;;0.77;0.47;;;;;;;14.93;100.00;102100.06;10448706;28;20504;-82
2023/06/06 05:26:56;;;;;;;0.22;0.22;;;;;;;15.12;100.00;102099.72;10420186;28;20037;-81
2023/06/06 05:31:59;;;;;;;0.90;0.35;;;;;;;15.58;100.00;102093.94;10450410;28;20121;-80
2023/06/06 05:37:02;;;;;;;1.38;0.85;;;;;;;15.36;100.00;102101.19;10425355;28;20442;-80
2023/06/06 05:42:05;;;;;;;1.58;0.95;;;;;;;15.76;100.00;102096.94;10449683;28;20485;-81
2023/06/06 05:47:06;;;;;;;0.43;0.35;;;;;;;15.74;100.00;102093.47;10459809;28;20041;-81
2023/06/06 05:52:08;;;;;;;0.65;0.32;;;;;;;15.67;100.00;102091.56;10439558;28;20399;-82
2023/06/06 05:57:21;;;;;;;0.65;0.25;;;;;;;15.90;100.00;102093.84;10459758;28;20055;-81
2023/06/06 06:02:22;;;;;;;2.80;0.60;;;;;;;15.91;100.00;102087.78;10448731;28;20510;-81
2023/06/06 06:07:27;;;;;;;0.85;0.85;;;;;;;16.33;100.00;102087.84;10447842;28;20053;-81
2023/06/06 06:12:29;;;;;;;1.40;0.95;;;;;;;16.70;100.00;102090.34;10446851;28;20049;-81
2023/06/06 06:17:31;;;;;;;1.65;0.35;;;;;;;16.79;100.00;102090.50;10448044;28;20060;-81
2023/06/06 06:22:32;;;;;;;0.22;0.17;;;;;;;17.02;100.00;102087.47;10459938;28;20530;-82
2023/06/06 06:27:37;;;;;;;2.35;0.70;;;;;;;16.96;100.00;102098.66;10430080;28;20044;-80
2023/06/06 06:32:41;;;;;;;0.65;0.65;;;;;;;17.11;100.00;102092.84;10476196;28;20098;-75
2023/06/06 06:37:43;;;;;;;0.10;0.10;;;;;;;17.32;100.00;102091.47;10455555;28;20083;-76
2023/06/06 06:42:45;;;;;;;0.32;0.32;;;;;;;17.03;100.00;102089.22;10424879;28;20051;-79
2023/06/06 06:47:59;;;;;;;0.57;0.55;;;;;;;17.19;100.00;102089.50;10457111;28;20048;-75
2023/06/06 06:53:02;;;;;;;1.73;1.30;;;;;;;17.57;100.00;102097.09;10474536;28;20103;-80
2023/06/06 06:58:05;;;;;;;0.43;0.32;;;;;;;18.19;100.00;102095.41;10445855;28;20081;-78
2023/06/06 07:03:08;;;;;;;7.88;0.80;;;;;;;18.49;100.00;102091.44;10448912;28;20132;-78
2023/06/06 07:08:10;;;;;;;0.57;0.57;;;;;;;19.10;100.00;102093.00;10474641;28;20041;-78
2023/06/06 07:13:15;;;;;;;0.65;0.20;;;;;;;18.97;100.00;102100.69;10444102;28;20087;-79
2023/06/06 07:18:16;;;;;;;0.60;0.43;;;;;;;20.85;100.00;102078.34;10470094;28;20048;-77
2023/06/06 07:23:18;;;;;;;0.17;0.17;;;;;;;19.96;100.00;102091.06;10447882;28;20036;-78
2023/06/06 07:28:20;;;;;;;1.13;0.70;;;;;;;19.86;100.00;102085.75;10467285;28;20044;-78
2023/06/06 07:33:21;;;;;;;1.00;0.52;;;;;;;21.22;100.00;102084.47;10464553;28;20135;-79
2023/06/06 07:38:23;;;;;;;9.55;0.70;;;;;;;21.35;100.00;102076.59;10444745;28;20052;-79
2023/06/06 07:43:25;;;;;;;0.52;0.40;;;;;;;21.33;100.00;102075.75;10455049;28;20527;-78
2023/06/06 07:48:26;;;;;;;0.40;0.38;;;;;;;20.56;100.00;102071.22;10449225;28;20053;-78
2023/06/06 07:53:28;;;;;;;0.17;0.17;;;;;;;22.62;100.00;102063.13;10490022;28;20143;-79
2023/06/06 07:58:40;;;;;;;0.20;0.20;;;;;;;22.46;100.00;102057.97;10457912;28;20122;-78
2023/06/06 08:03:42;;;;;;;0.47;0.47;;;;;;;21.75;100.00;102062.59;10477678;28;20053;-79
2023/06/06 08:08:46;;;;;;;0.90;0.47;;;;;;;22.26;100.00;102065.06;10455532;28;20488;-78
2023/06/06 08:13:47;;;;;;;0.05;0.03;;;;;;;24.42;98.67;102049.16;10438280;28;20045;-78
2023/06/06 08:18:49;;;;;;;0.30;0.30;;;;;;;23.32;100.00;102060.03;10468673;28;20399;-78
2023/06/06 08:23:51;;;;;;;0.38;0.30;;;;;;;23.64;99.94;102057.09;10453701;28;20070;-77
2023/06/06 08:28:52;;;;;;;0.70;0.38;;;;;;;22.67;98.86;102056.13;10438614;28;20049;-79
2023/06/06 08:33:54;;;;;;;0.35;0.35;;;;;;;23.53;100.00;102043.19;10477386;28;20133;-78
2023/06/06 08:38:56;;;;;;;0.65;0.55;;;;;;;22.51;100.00;102055.31;10467281;28;20534;-78
2023/06/06 08:43:59;;;;;;;0.08;0.08;;;;;;;23.40;99.55;102038.06;10458750;28;20069;-79
2023/06/06 08:49:03;;;;;;;0.10;0.10;;;;;;;23.44;98.60;102038.88;10459958;28;20052;-78
2023/06/06 08:54:05;;;;;;;2.28;1.10;;;;;;;24.27;95.92;102034.44;10458097;28;20489;-77
2023/06/06 08:59:07;;;;;;;0.50;0.22;;;;;;;23.35;97.64;102039.81;10459406;28;20044;-77
2023/06/06 09:04:13;;;;;;;0.25;0.22;;;;;;;24.16;94.17;102049.53;10451174;28;20053;-78
2023/06/06 09:09:15;;;;;;;0.65;0.65;;;;;;;23.93;93.04;102037.50;10451202;28;20049;-79
2023/06/06 09:14:17;;;;;;;0.35;0.20;;;;;;;24.25;94.30;102044.09;10449480;28;20445;-79
2023/06/06 09:19:25;;;;;;;0.47;0.47;;;;;;;25.11;87.87;102027.94;10464451;28;20051;-79
2023/06/06 09:24:28;;;;;;;2.33;0.50;;;;;;;24.69;90.69;102024.19;10448031;28;20044;-77
2023/06/06 09:29:38;;;;;;;1.35;0.38;;;;;;;24.95;88.21;102029.94;10466413;28;20055;-78
2023/06/06 09:34:40;;;;;;;0.88;0.25;;;;;;;26.03;88.14;102029.72;10444555;28;20041;-77
2023/06/06 09:39:41;;;;;;;0.20;0.20;;;;;;;26.78;87.11;102032.47;10481972;28;20135;-78
2023/06/06 09:44:45;;;;;;;0.35;0.32;;;;;;;25.45;86.46;102036.16;10451874;28;20052;-78
2023/06/06 09:49:48;;;;;;;0.73;0.38;;;;;;;25.42;87.79;102030.91;10454673;28;20041;-78
2023/06/06 09:54:50;;;;;;;2.33;0.30;;;;;;;26.72;81.92;102022.03;10447829;28;20036;-79
2023/06/06 09:59:53;;;;;;;0.47;0.38;;;;;;;26.16;82.37;102031.25;10439163;28;20059;-77
2023/06/06 10:04:55;;;;;;;0.52;0.47;;;;;;;25.93;84.72;102016.72;10464810;28;20464;-78
2023/06/06 10:09:57;;;;;;;0.63;0.40;;;;;;;27.34;82.49;102013.41;10461150;28;20075;-77
2023/06/06 10:15:00;;;;;;;0.10;0.10;;;;;;;27.61;80.10;102010.06;10464126;28;20042;-77
2023/06/06 10:20:06;;;;;;;0.20;0.20;;;;;;;26.25;81.60;102016.94;10447055;28;20480;-78
2023/06/06 10:25:11;;;;;;;1.40;0.52;;;;;;;26.62;81.92;101999.38;10455057;28;20084;-78
2023/06/06 10:30:21;;;;;;;0.35;0.35;;;;;;;27.12;78.77;102002.56;10483020;28;20049;-77
2023/06/06 10:35:24;;;;;;;0.63;0.55;;;;;;;27.51;79.19;102005.06;10455089;28;20059;-79
2023/06/06 10:40:26;;;;;;;0.43;0.38;;;;;;;26.95;80.34;102013.56;10446164;28;20484;-78
2023/06/06 10:45:45;;;;;;;0.20;0.20;;;;;;;26.70;79.30;102007.97;10461135;28;20045;-78
2023/06/06 10:50:53;;;;;;;0.77;0.60;;;;;;;27.70;77.66;101993.94;10466294;28;20069;-79
2023/06/06 10:55:55;;;;;;;2.60;0.63;;;;;;;26.76;78.95;102002.59;10471793;28;20136;-79
2023/06/06 11:01:03;;;;;;;0.38;0.32;;;;;;;28.32;76.18;101989.47;10466518;28;20036;-79
2023/06/06 11:06:07;;;;;;;1.02;0.40;;;;;;;27.13;76.59;101996.34;10442958;28;20097;-77
2023/06/06 11:11:22;;;;;;;0.90;0.55;;;;;;;27.84;78.89;101983.81;10441039;28;20069;-78
2023/06/06 11:16:40;;;;;;;0.88;0.55;;;;;;;27.81;76.03;101986.53;10461244;28;20166;-79
2023/06/06 11:21:43;;;;;;;0.50;0.30;;;;;;;27.92;74.04;101980.94;10453001;28;20045;-78
2023/06/06 11:26:46;;;;;;;1.15;0.63;;;;;;;28.78;71.61;101974.72;10451695;28;20411;-79
2023/06/06 11:31:47;;;;;;;0.30;0.20;;;;;;;28.11;72.17;101983.03;10463722;28;20048;-78
2023/06/06 11:36:53;;;;;;;0.63;0.20;;;;;;;29.78;71.52;101972.06;10434076;28;20048;-78
2023/06/06 11:41:56;;;;;;;0.90;0.50;;;;;;;29.27;73.20;101974.78;10465808;28;20107;-79
2023/06/06 11:46:57;;;;;;;0.15;0.15;;;;;;;29.81;69.68;101979.06;10425947;28;20052;-78
2023/06/06 11:52:01;;;;;;;0.55;0.38;;;;;;;28.24;69.15;101975.59;10434428;28;20041;-80
2023/06/06 11:57:04;;;;;;;0.43;0.30;;;;;;;30.13;67.84;101964.53;10461454;28;20061;-79
2023/06/06 12:02:06;;;;;;;0.65;0.10;;;;;;;28.02;70.03;101968.28;10459751;28;20053;-78
2023/06/06 12:07:08;;;;;;;0.52;0.45;;;;;;;28.86;68.97;101958.56;10445196;28;20052;-79
2023/06/06 12:12:10;;;;;;;0.10;0.10;;;;;;;28.52;68.46;101964.09;10455928;28;20546;-79
2023/06/06 12:17:12;;;;;;;0.45;0.35;;;;;;;29.20;64.10;101961.78;10451275;28;20539;-79
2023/06/06 12:22:27;;;;;;;0.55;0.10;;;;;;;29.52;68.42;101951.81;10449895;28;20049;-79
2023/06/06 12:27:36;;;;;;;0.10;0.10;;;;;;;28.90;68.52;101954.00;10467603;28;20067;-78
2023/06/06 12:32:39;;;;;;;0.30;0.10;;;;;;;28.08;66.00;101960.16;10468389;28;20475;-78
2023/06/06 12:37:42;;;;;;;0.85;0.60;;;;;;;29.57;67.37;101947.19;10461172;28;20041;-79
2023/06/06 12:42:58;;;;;;;0.20;0.10;;;;;;;29.14;66.08;101939.00;10465315;28;20488;-78
2023/06/06 12:47:59;;;;;;;1.08;0.22;;;;;;;30.38;63.17;101932.50;10478364;28;20056;-79
2023/06/06 12:53:02;;;;;;;0.22;0.22;;;;;;;29.10;61.39;101935.59;10445646;28;20085;-78
2023/06/06 12:58:05;;;;;;;0.10;0.10;;;;;;;29.19;62.53;101938.84;10453913;28;20040;-80
2023/06/06 13:03:09;;;;;;;1.35;0.55;;;;;;;29.81;62.33;101932.09;10452008;28;20099;-78
2023/06/06 13:08:11;;;;;;;1.58;0.30;;;;;;;29.34;61.21;101927.69;10453905;28;20132;-81
2023/06/06 13:13:29;;;;;;;0.00;0.00;;;;;;;29.80;63.03;101934.81;10432000;28;20049;-79
2023/06/06 13:18:31;;;;;;;0.17;0.17;;;;;;;30.08;63.12;101931.97;10438866;28;20072;-78
2023/06/06 13:23:37;;;;;;;0.28;0.25;;;;;;;29.80;62.10;101930.38;10453388;28;20094;-78
2023/06/06 13:28:39;;;;;;;0.05;0.05;;;;;;;30.85;60.09;101919.94;10422374;28;20080;-77
2023/06/06 13:33:40;;;;;;;0.10;0.10;;;;;;;31.08;62.62;101920.72;10460991;28;20041;-77
2023/06/06 13:38:45;;;;;;;0.15;0.15;;;;;;;29.63;59.31;101928.38;10454697;28;20049;-78
2023/06/06 13:43:47;;;;;;;0.25;0.25;;;;;;;29.74;57.09;101918.22;10454865;28;20457;-79
2023/06/06 13:48:49;;;;;;;0.25;0.25;;;;;;;29.57;58.87;101920.66;10453510;28;20403;-79
2023/06/06 13:53:52;;;;;;;0.00;0.00;;;;;;;29.24;58.17;101920.94;10446434;28;20048;-80
2023/06/06 13:58:54;;;;;;;0.35;0.20;;;;;;;29.12;59.80;101907.22;10449242;28;20045;-80
2023/06/06 14:03:56;;;;;;;0.20;0.20;;;;;;;29.35;60.67;101905.53;10462871;28;20037;-79
2023/06/06 14:08:58;;;;;;;0.55;0.20;;;;;;;29.02;59.66;101903.16;10462178;28;20556;-80
2023/06/06 14:14:01;;;;;;;0.08;0.05;;;;;;;30.53;58.60;101899.09;10462626;28;20045;-78
2023/06/06 14:19:02;;;;;;;0.20;0.20;;;;;;;29.56;57.26;101900.31;10444558;28;20037;-79
2023/06/06 14:24:06;;;;;;;0.05;0.05;;;;;;;29.80;56.45;101897.63;10467510;28;20037;-78
2023/06/06 14:29:08;;;;;;;0.00;0.00;;;;;;;30.42;55.95;101885.38;10437422;28;20556;-78
2023/06/06 14:34:09;;;;;;;0.45;0.17;;;;;;;29.95;59.01;101891.75;10471026;28;20039;-78
2023/06/06 14:39:12;;;;;;;0.20;0.20;;;;;;;30.85;55.86;101877.38;10443025;28;20144;-78
2023/06/06 14:44:13;;;;;;;0.50;0.30;;;;;;;29.87;52.70;101876.06;10470779;28;20036;-78
2023/06/06 14:49:15;;;;;;;0.17;0.17;;;;;;;30.04;55.96;101880.75;10454667;28;20522;-77
2023/06/06 14:54:17;;;;;;;0.22;0.17;;;;;;;30.55;56.79;101875.13;10432298;28;20049;-79
2023/06/06 14:59:20;;;;;;;0.20;0.17;;;;;;;29.89;55.69;101871.56;10437946;28;20548;-79
2023/06/06 15:04:23;;;;;;;0.40;0.17;;;;;;;28.74;54.98;101880.28;10451161;28;20092;-79
2023/06/06 15:09:28;;;;;;;2.35;0.45;;;;;;;29.16;55.29;101870.81;10435820;28;20063;-81
2023/06/06 15:14:29;;;;;;;1.08;0.25;;;;;;;29.58;56.93;101871.94;10460252;28;20188;-79
2023/06/06 15:19:31;;;;;;;0.45;0.20;;;;;;;29.41;58.30;101870.78;10458282;28;20048;-79
2023/06/06 15:24:33;;;;;;;0.35;0.28;;;;;;;30.22;58.85;101859.63;10458087;28;20064;-79
2023/06/06 15:29:41;;;;;;;0.95;0.38;;;;;;;28.79;57.12;101866.88;10451400;28;20067;-79
2023/06/06 15:34:43;;;;;;;0.20;0.10;;;;;;;29.38;58.44;101860.28;10449746;28;20049;-79
2023/06/06 15:39:45;;;;;;;0.85;0.63;;;;;;;29.55;58.06;101857.00;10443319;28;20051;-78
2023/06/06 15:44:51;;;;;;;0.25;0.20;;;;;;;29.50;57.64;101858.94;10449022;28;20048;-78
2023/06/06 15:49:52;;;;;;;0.10;0.10;;;;;;;28.85;57.88;101849.88;10451093;28;20496;-79
2023/06/06 15:54:54;;;;;;;0.65;0.40;;;;;;;28.51;59.50;101846.59;10457497;28;20070;-78
2023/06/06 15:59:56;;;;;;;0.38;0.38;;;;;;;28.91;58.61;101847.00;10443537;28;20049;-78
2023/06/06 16:04:58;;;;;;;0.65;0.15;;;;;;;29.06;59.71;101848.19;10472867;28;20029;-79
2023/06/06 16:10:00;;;;;;;1.42;0.70;;;;;;;28.50;60.07;101848.38;10443260;28;20049;-78
2023/06/06 16:15:01;;;;;;;0.00;0.00;;;;;;;28.52;60.27;101845.66;10456622;28;20045;-79
2023/06/06 16:20:04;;;;;;;0.73;0.20;;;;;;;28.34;61.54;101839.22;10465688;28;20529;-79
2023/06/06 16:25:06;;;;;;;0.05;0.05;;;;;;;27.83;63.26;101841.72;10459880;28;20508;-78
2023/06/06 16:30:08;;;;;;;0.73;0.57;;;;;;;27.76;65.48;101842.00;10475095;28;20052;-79
2023/06/06 16:35:10;;;;;;;0.20;0.20;;;;;;;27.76;69.41;101842.00;10447913;28;20067;-79
2023/06/06 16:40:12;;;;;;;0.52;0.47;;;;;;;28.04;71.09;101849.88;10468061;28;20044;-77
2023/06/06 16:45:14;;;;;;;0.00;0.00;;;;;;;27.89;73.99;101853.06;10465429;28;20071;-79
2023/06/06 16:50:16;;;;;;;1.08;0.40;;;;;;;28.24;72.75;101865.16;10444674;28;20049;-79
2023/06/06 16:55:17;;;;;;;0.70;0.32;;;;;;;28.02;75.07;101859.69;10441523;28;20045;-78
2023/06/06 17:00:20;;;;;;;3.15;1.08;;;;;;;27.86;75.46;101861.94;10445614;28;20048;-79
2023/06/06 17:05:22;;;;;;;0.80;0.60;;;;;;;28.08;75.44;101863.94;10468107;28;20396;-79
2023/06/06 17:10:24;;;;;;;0.90;0.45;;;;;;;28.30;76.76;101859.66;10443274;28;20148;-78
2023/06/06 17:15:25;;;;;;;0.28;0.28;;;;;;;26.64;78.66;101868.06;10444087;28;20045;-78
2023/06/06 17:20:28;;;;;;;1.75;0.45;;;;;;;27.14;78.72;101871.13;10440161;28;20045;-78
2023/06/06 17:25:29;;;;;;;0.30;0.25;;;;;;;26.46;80.54;101872.94;10466795;28;20091;-78
2023/06/06 17:30:51;;;;;;;0.95;0.47;;;;;;;27.23;79.92;101870.84;10480999;28;20072;-78
2023/06/06 17:35:54;;;;;;;3.78;0.40;;;;;;;26.78;82.59;101878.31;10442162;28;20408;-79
2023/06/06 17:40:55;;;;;;;0.20;0.20;;;;;;;26.41;83.17;101885.38;10450890;28;20416;-78
2023/06/06 17:45:57;;;;;;;0.75;0.35;;;;;;;25.81;85.54;101890.25;10459631;28;20484;-79
2023/06/06 17:50:58;;;;;;;0.38;0.10;;;;;;;25.50;87.37;101894.44;10483133;28;20045;-78
2023/06/06 17:56:00;;;;;;;0.13;0.13;;;;;;;25.68;88.13;101889.69;10462278;28;20049;-78
2023/06/06 18:01:02;;;;;;;0.43;0.20;;;;;;;25.47;89.26;101891.00;10448548;28;20403;-79
2023/06/06 18:06:04;;;;;;;0.57;0.45;;;;;;;25.46;88.36;101895.44;10418744;28;20064;-78
2023/06/06 18:11:06;;;;;;;0.00;0.00;;;;;;;25.75;88.35;101906.25;10475240;28;20059;-79
2023/06/06 18:16:07;;;;;;;0.10;0.10;;;;;;;25.11;90.10;101889.03;10471491;28;20139;-77
2023/06/06 18:21:09;;;;;;;0.30;0.30;;;;;;;24.90;91.02;101895.63;10455697;28;20080;-78
2023/06/06 18:26:11;;;;;;;0.55;0.28;;;;;;;25.07;90.80;101913.75;10436975;28;20060;-79
2023/06/06 18:31:13;;;;;;;6.15;0.22;;;;;;;24.84;92.16;101909.75;10446150;28;20052;-79
2023/06/06 18:36:33;;;;;;;2.53;0.35;;;;;;;24.87;91.59;101900.94;10440608;28;20531;-79
2023/06/06 18:41:34;;;;;;;0.45;0.43;;;;;;;24.51;94.03;101916.44;10457112;28;20052;-78
2023/06/06 18:46:36;;;;;;;0.40;0.32;;;;;;;24.33;94.09;101926.38;10444965;28;20091;-78
2023/06/06 18:51:40;;;;;;;2.17;0.30;;;;;;;24.00;95.49;101936.53;10454583;28;20037;-78
2023/06/06 18:56:42;;;;;;;8.55;0.28;;;;;;;24.11;94.99;101919.69;10444618;28;20455;-77
2023/06/06 19:01:44;;;;;;;0.73;0.30;;;;;;;23.69;95.48;101933.38;10435760;28;20037;-79
2023/06/06 19:06:47;;;;;;;2.75;0.80;;;;;;;23.66;95.73;101944.81;10444775;28;20044;-79
2023/06/06 19:11:49;;;;;;;0.82;0.45;;;;;;;23.45;96.62;101952.09;10449199;28;20136;-78
2023/06/06 19:16:50;;;;;;;2.08;1.05;;;;;;;23.47;95.71;101946.78;10465465;28;20103;-79
2023/06/06 19:21:52;;;;;;;1.30;0.93;;;;;;;23.51;96.37;101955.50;10434888;28;20073;-79
2023/06/06 19:26:54;;;;;;;0.38;0.38;;;;;;;23.10;98.40;101971.69;10455629;28;20479;-79
2023/06/06 19:31:56;;;;;;;0.90;0.68;;;;;;;23.27;97.81;101983.84;10463130;28;20484;-78
2023/06/06 19:36:58;;;;;;;0.45;0.28;;;;;;;22.97;99.33;101977.97;10455632;28;20124;-79
2023/06/06 19:42:00;;;;;;;0.95;0.68;;;;;;;22.39;100.00;101988.00;10440465;28;20171;-77
2023/06/06 19:47:01;;;;;;;1.95;0.40;;;;;;;22.76;100.00;101987.75;10440377;28;20045;-77
2023/06/06 19:52:05;;;;;;;0.20;0.20;;;;;;;22.14;100.00;101998.63;10443492;28;20112;-79
2023/06/06 19:57:07;;;;;;;0.50;0.45;;;;;;;22.12;100.00;102003.00;10470703;28;20141;-78
2023/06/06 20:02:09;;;;;;;0.65;0.65;;;;;;;21.92;100.00;102007.47;10452908;28;20489;-78
2023/06/06 20:07:11;;;;;;;0.30;0.30;;;;;;;21.70;100.00;101997.91;10491291;28;20049;-78
2023/06/06 20:12:12;;;;;;;1.15;0.75;;;;;;;21.51;100.00;102020.66;10441786;28;20047;-77
2023/06/06 20:17:14;;;;;;;1.85;0.85;;;;;;;21.50;100.00;102011.03;10444503;28;20045;-77
2023/06/06 20:22:16;;;;;;;4.32;0.77;;;;;;;21.39;100.00;102023.31;10447960;28;20041;-78
2023/06/06 20:27:17;;;;;;;1.00;0.93;;;;;;;21.07;100.00;102021.59;10460933;28;20123;-78
2023/06/06 20:32:19;;;;;;;0.63;0.32;;;;;;;21.11;100.00;102025.94;10450648;28;20045;-78
2023/06/06 20:37:21;;;;;;;0.50;0.25;;;;;;;21.21;100.00;102025.06;10449094;28;20095;-78
2023/06/06 20:42:22;;;;;;;0.57;0.30;;;;;;;20.70;100.00;102021.53;10472484;28;20037;-78
2023/06/06 20:47:24;;;;;;;0.30;0.30;;;;;;;20.89;100.00;102031.16;10461503;28;20052;-78
2023/06/06 20:52:27;;;;;;;2.15;0.40;;;;;;;20.52;100.00;102036.31;10457209;28;20538;-79
2023/06/06 20:57:28;;;;;;;0.10;0.10;;;;;;;20.64;100.00;102032.84;10471192;28;20051;-78
2023/06/06 21:02:33;;;;;;;1.52;0.75;;;;;;;20.23;100.00;102036.25;10458508;28;20144;-78
2023/06/06 21:07:36;;;;;;;0.40;0.35;;;;;;;20.20;100.00;102037.09;10458295;28;20134;-79
2023/06/06 21:12:39;;;;;;;0.73;0.60;;;;;;;20.22;100.00;102043.19;10449307;28;20512;-78
2023/06/06 21:17:40;;;;;;;1.35;0.60;;;;;;;20.08;100.00;102043.16;10472171;28;20709;-78
2023/06/06 21:22:42;;;;;;;0.20;0.13;;;;;;;20.18;100.00;102044.06;10454552;28;20040;-77
2023/06/06 21:27:45;;;;;;;0.57;0.40;;;;;;;19.71;100.00;102042.03;10457949;28;20045;-78
2023/06/06 21:32:46;;;;;;;0.13;0.13;;;;;;;19.74;100.00;102039.47;10464687;28;20060;-78
2023/06/06 21:37:48;;;;;;;0.65;0.30;;;;;;;19.52;100.00;102041.94;10468408;28;20079;-78
2023/06/06 21:42:50;;;;;;;1.05;0.32;;;;;;;19.92;100.00;102044.81;10458501;28;20492;-78
2023/06/06 21:47:51;;;;;;;0.30;0.20;;;;;;;19.92;100.00;102054.41;10447587;28;20049;-77
2023/06/06 21:52:53;;;;;;;0.57;0.43;;;;;;;19.67;100.00;102054.22;10460319;28;20099;-78
2023/06/06 21:57:55;;;;;;;0.43;0.40;;;;;;;19.45;100.00;102051.47;10455697;28;20407;-78
2023/06/06 22:02:57;;;;;;;0.15;0.15;;;;;;;19.21;100.00;102067.84;10438735;28;20052;-78
2023/06/06 22:07:59;;;;;;;1.45;0.28;;;;;;;19.23;100.00;102060.00;10442820;28;20073;-78
2023/06/06 22:13:01;;;;;;;4.82;0.95;;;;;;;19.14;100.00;102060.81;10463031;28;20060;-78
2023/06/06 22:18:03;;;;;;;0.40;0.40;;;;;;;18.72;100.00;102062.97;10441075;28;20049;-78
2023/06/06 22:23:04;;;;;;;3.40;0.30;;;;;;;19.13;100.00;102066.88;10449300;28;20049;-77
2023/06/06 22:28:07;;;;;;;3.10;0.73;;;;;;;19.18;100.00;102058.22;10444490;28;20052;-77
2023/06/06 22:33:09;;;;;;;2.20;0.50;;;;;;;18.76;100.00;102063.88;10453790;28;20045;-77
2023/06/06 22:38:11;;;;;;;3.47;1.27;;;;;;;18.84;100.00;102062.22;10453317;28;20052;-78
2023/06/06 22:43:13;;;;;;;0.20;0.20;;;;;;;18.60;100.00;102058.50;10445661;28;20059;-77
2023/06/06 22:48:14;;;;;;;0.90;0.60;;;;;;;18.71;100.00;102056.00;10461802;28;20059;-78
2023/06/06 22:53:17;;;;;;;0.45;0.40;;;;;;;18.39;100.00;102065.22;10472646;28;20044;-78
2023/06/06 22:58:20;;;;;;;0.30;0.30;;;;;;;18.69;100.00;102063.81;10436173;28;20049;-77
2023/06/06 23:03:21;;;;;;;0.77;0.63;;;;;;;18.60;100.00;102053.28;10469079;28;20496;-78